»·PEaware :: N786SC KLAX-KSAN

N786SC :: KLAX-KSAN

FLIGHT INFORMATION

Flight Status: Arrived
Operator: Privately registered:
United States
More flights under this callsign
Pilot: Jereme M. (20698)
Aircraft: CESSNA 172 SKYHAWK
(C172)
More flights by this aircraft type
Origin: KLAX Los Angeles Intl
United States
Destination: KSAN San Diego Intl-Lindbergh
United States
More flights between these airports :: More routes between these airports
Route:
File this flight plan on PilotEdge
Remarks: CAT11
Altitude:
(Current/Filed)
5,500ft
Speed:
(Current/Filed)
110kts
Departed: 08-Nov-18 06:13 PM
Arrived: 08-Nov-18 07:15 PM
Distance/Time
Traveled:
95nm/1:02
Distance/Time
To Go:
Arrived

Flight Plot

Page will automatically refresh every two minutes.


Map Options




Map Legend


Flown Route
Filed Route
Departure Airport
Arrival Airport
Navaid (VOR, NDB)
Fix

Horizontal Profiles

Position Reports

Time Latitude Longitude Heading Altitude Ground
Speed
08-Nov-18 17:36 33.933666 -118.399069 174 129ft 0kts
08-Nov-18 17:37 33.933666 -118.399069 174 129ft 0kts
08-Nov-18 17:38 33.933666 -118.399069 174 129ft 0kts
08-Nov-18 17:39 33.933666 -118.399069 174 129ft 0kts
08-Nov-18 17:40 33.933666 -118.399069 174 129ft 0kts
08-Nov-18 17:41 33.933666 -118.399069 174 129ft 0kts
08-Nov-18 17:45 33.933666 -118.399069 174 129ft 0kts
08-Nov-18 17:46 33.933666 -118.399069 174 129ft 0kts
08-Nov-18 17:47 33.933666 -118.399069 174 129ft 0kts
08-Nov-18 17:48 33.933666 -118.399069 174 129ft 0kts
08-Nov-18 17:49 33.933666 -118.399069 174 129ft 0kts
08-Nov-18 17:50 33.933666 -118.399069 174 129ft 0kts
08-Nov-18 17:51 33.933666 -118.399069 174 129ft 0kts
08-Nov-18 17:52 33.933666 -118.399069 174 129ft 0kts
08-Nov-18 17:53 33.933666 -118.399069 174 129ft 0kts
08-Nov-18 17:54 33.933666 -118.399069 174 129ft 0kts
08-Nov-18 17:55 33.933666 -118.399069 174 129ft 0kts
08-Nov-18 17:56 33.933666 -118.399069 174 129ft 0kts
08-Nov-18 17:57 33.933666 -118.399069 174 129ft 0kts
08-Nov-18 17:58 33.933666 -118.399069 174 129ft 0kts
08-Nov-18 17:59 33.933666 -118.399069 174 129ft 0kts
08-Nov-18 18:00 33.933666 -118.399069 174 129ft 0kts
08-Nov-18 18:01 33.933666 -118.399069 174 129ft 0kts
08-Nov-18 18:02 33.933666 -118.399069 174 129ft 0kts
08-Nov-18 18:03 33.933666 -118.399069 174 129ft 0kts
08-Nov-18 18:04 33.933666 -118.399069 174 129ft 0kts
08-Nov-18 18:05 33.933666 -118.399069 174 129ft 0kts
08-Nov-18 18:06 33.933666 -118.399069 174 129ft 0kts
08-Nov-18 18:07 33.933666 -118.399069 174 129ft 0kts
08-Nov-18 18:08 33.933666 -118.399069 174 129ft 0kts
08-Nov-18 18:09 33.933666 -118.399069 174 129ft 0kts
08-Nov-18 18:10 33.933666 -118.399069 174 129ft 0kts
08-Nov-18 18:11 33.934509 -118.397830 63 129ft 13kts
08-Nov-18 18:12 33.935260 -118.391259 82 129ft 24kts
08-Nov-18 18:13 33.936186 -118.382992 54 129ft 11kts
08-Nov-18 18:14 33.936447 -118.382779 8 129ft 0kts
08-Nov-18 18:15 33.936461 -118.382778 0 129ft 1kts
08-Nov-18 18:16 33.936513 -118.393348 265 331ft 72kts
08-Nov-18 18:17 33.935187 -118.417781 265 1187ft 74kts
08-Nov-18 18:18 33.934069 -118.442797 265 1977ft 77kts
08-Nov-18 18:19 33.933373 -118.469659 266 2525ft 101kts
08-Nov-18 18:20 33.925762 -118.501799 199 2508ft 111kts
08-Nov-18 18:21 33.895508 -118.497088 171 2703ft 104kts
08-Nov-18 18:22 33.865919 -118.490268 172 2801ft 114kts
08-Nov-18 18:23 33.835081 -118.482843 171 2954ft 109kts
08-Nov-18 18:24 33.807317 -118.475622 171 3402ft 95kts
08-Nov-18 18:25 33.779166 -118.466592 162 3491ft 119kts
08-Nov-18 18:26 33.749091 -118.447205 125 3488ft 128kts
08-Nov-18 18:27 33.734401 -118.408764 92 3683ft 121kts
08-Nov-18 18:28 33.733943 -118.369983 92 4172ft 114kts
08-Nov-18 18:29 33.731647 -118.334675 92 4862ft 97kts
08-Nov-18 18:30 33.729562 -118.303385 92 5464ft 95kts
08-Nov-18 18:31 33.727449 -118.265773 93 5500ft 121kts
08-Nov-18 18:32 33.716314 -118.228945 108 5499ft 119kts
08-Nov-18 18:33 33.707743 -118.190770 105 5499ft 118kts
08-Nov-18 18:34 33.699962 -118.152443 105 5499ft 117kts
08-Nov-18 18:35 33.685471 -118.118121 123 5499ft 115kts
08-Nov-18 18:36 33.668857 -118.085357 123 5500ft 114kts
08-Nov-18 18:37 33.652246 -118.052658 123 5499ft 115kts
08-Nov-18 18:38 33.635493 -118.019701 122 5497ft 116kts
08-Nov-18 18:39 33.618197 -117.988535 130 5496ft 116kts
08-Nov-18 18:40 33.597551 -117.958913 130 5495ft 116kts
08-Nov-18 18:41 33.576966 -117.929388 129 5493ft 116kts
08-Nov-18 18:42 33.556224 -117.899676 129 5492ft 116kts
08-Nov-18 18:43 33.535619 -117.870175 129 5491ft 116kts
08-Nov-18 18:44 33.514921 -117.840579 129 5490ft 115kts
08-Nov-18 18:45 33.494268 -117.811053 128 5490ft 115kts
08-Nov-18 18:46 33.473599 -117.781538 128 5490ft 116kts
08-Nov-18 18:47 33.452894 -117.752003 128 5490ft 116kts
08-Nov-18 18:48 33.432172 -117.722467 129 5491ft 116kts
08-Nov-18 18:49 33.411276 -117.692701 129 5491ft 117kts
08-Nov-18 18:50 33.390335 -117.662900 129 5491ft 117kts
08-Nov-18 18:51 33.369272 -117.632949 129 5491ft 117kts
08-Nov-18 18:52 33.348224 -117.603045 129 5492ft 117kts
08-Nov-18 18:53 33.327203 -117.573195 130 5496ft 117kts
08-Nov-18 18:54 33.306122 -117.543289 130 5500ft 117kts
08-Nov-18 18:55 33.285061 -117.513440 131 5504ft 117kts
08-Nov-18 18:56 33.264844 -117.484811 131 5508ft 116kts
08-Nov-18 18:57 33.243903 -117.455175 131 5512ft 116kts
08-Nov-18 18:58 33.221249 -117.427930 139 5515ft 115kts
08-Nov-18 18:59 33.197554 -117.402217 139 5519ft 115kts
08-Nov-18 19:00 33.173736 -117.376417 139 5523ft 115kts
08-Nov-18 19:01 33.152872 -117.353821 139 5528ft 116kts
08-Nov-18 19:02 33.127028 -117.332672 161 5258ft 115kts
08-Nov-18 19:03 33.097402 -117.319440 162 4759ft 114kts
08-Nov-18 19:04 33.067405 -117.306137 162 4257ft 115kts
08-Nov-18 19:05 33.037448 -117.292867 162 3757ft 115kts
08-Nov-18 19:06 33.008150 -117.279860 162 3493ft 112kts
08-Nov-18 19:07 32.978040 -117.266614 166 3492ft 118kts
08-Nov-18 19:08 32.950690 -117.263135 178 3494ft 120kts
08-Nov-18 19:09 32.916830 -117.259618 178 3494ft 122kts
08-Nov-18 19:10 32.884756 -117.256284 178 3493ft 115kts
08-Nov-18 19:11 32.852487 -117.252936 178 3494ft 120kts
08-Nov-18 19:12 32.819121 -117.242158 160 3494ft 128kts
08-Nov-18 19:13 32.780817 -117.225598 160 2688ft 123kts
08-Nov-18 19:14 32.755667 -117.210947 146 1825ft 120kts
08-Nov-18 19:15 32.741510 -117.178511 107 1062ft 102kts
08-Nov-18 19:16 32.730187 -117.158824 246 766ft 76kts
08-Nov-18 19:17 32.731026 -117.179330 289 57ft 52kts
08-Nov-18 19:18 32.733871 -117.190173 290 21ft 23kts
08-Nov-18 19:19 32.734671 -117.190713 41 21ft 0kts
08-Nov-18 19:20 32.735241 -117.189279 106 21ft 0kts
08-Nov-18 19:21 32.735241 -117.189279 106 21ft 0kts
08-Nov-18 19:22 32.735241 -117.189279 106 21ft 0kts
08-Nov-18 19:23 32.735241 -117.189279 106 21ft 0kts
08-Nov-18 19:24 32.735241 -117.189279 106 21ft 0kts
08-Nov-18 19:25 32.735241 -117.189279 106 21ft 0kts
08-Nov-18 19:26 32.735241 -117.189279 106 21ft 0kts
08-Nov-18 19:27 32.735241 -117.189279 106 21ft 0kts
08-Nov-18 19:28 32.735241 -117.189279 106 21ft 0kts

Navigation Log

Ident Type
1. KLAX Airport
2. KSAN Airport